createdAt,value
2023-05-12T00:21:04.152Z,14.70
2023-05-12T00:27:52.270Z,16.20
2023-05-12T00:49:44.126Z,14.60
2023-05-12T00:56:01.608Z,14.47
2023-05-12T00:58:51.137Z,14.73
2023-05-12T01:05:15.240Z,15.10
2023-05-12T01:11:54.271Z,15.20
2023-05-12T01:18:10.334Z,16.13
2023-05-12T01:21:30.171Z,16.83
2023-05-12T01:28:00.172Z,16.53
2023-05-12T01:30:31.067Z,17.87
2023-05-12T01:33:28.147Z,18.83
2023-05-12T01:36:16.418Z,19.40
2023-05-12T02:42:26.623Z,22.83
2023-05-12T03:25:05.758Z,23.67
2023-05-12T03:27:58.346Z,23.33
2023-05-12T03:31:00.062Z,24.37
2023-05-12T03:33:32.508Z,23.20
2023-05-12T03:46:24.491Z,23.63
2023-05-12T03:48:57.786Z,25.53
2023-05-12T03:51:33.815Z,24.33
2023-05-12T03:54:12.143Z,25.70
2023-05-12T03:56:44.341Z,24.37
2023-05-12T03:59:25.891Z,24.27
2023-05-12T04:02:02.225Z,24.40
2023-05-12T04:30:20.154Z,28.60
2023-05-12T05:55:07.963Z,30.97
2023-05-12T05:57:39.553Z,29.03
2023-05-12T06:00:12.933Z,32.10
2023-05-12T06:02:46.359Z,29.60
2023-05-12T06:05:20.557Z,33.20
2023-05-12T06:07:50.779Z,30.93
2023-05-12T06:10:31.655Z,30.30
2023-05-12T06:13:01.683Z,33.20
2023-05-12T06:15:35.532Z,31.30
2023-05-12T06:18:09.715Z,30.83
2023-05-12T06:20:41.970Z,31.87
2023-05-12T06:23:12.596Z,31.13
2023-05-12T06:25:50.434Z,31.47
2023-05-12T06:28:32.456Z,29.30
2023-05-12T06:31:10.076Z,31.53
2023-05-12T06:33:45.695Z,29.67
2023-05-12T06:36:15.532Z,30.40
2023-05-12T06:38:45.327Z,31.83
2023-05-12T06:41:20.122Z,33.50
2023-05-12T06:43:49.928Z,34.73
2023-05-12T06:46:19.740Z,34.50
2023-05-12T06:48:49.849Z,34.27
2023-05-12T06:51:19.689Z,34.37
2023-05-12T06:53:49.598Z,34.90
2023-05-12T06:56:23.438Z,35.03
2023-05-12T06:58:53.274Z,36.60
2023-05-12T07:01:23.126Z,36.93
2023-05-12T07:03:52.998Z,35.80
2023-05-12T07:06:23.288Z,34.50
2023-05-12T07:08:53.346Z,37.57
2023-05-12T07:11:27.086Z,36.13
2023-05-12T07:13:57.283Z,35.23
2023-05-12T07:16:27.499Z,29.73
2023-05-12T07:18:57.723Z,33.30
2023-05-12T07:21:28.829Z,38.33
2023-05-12T07:23:59.473Z,34.73
2023-05-12T07:26:32.203Z,35.93
2023-05-12T07:29:04.232Z,36.67
2023-05-12T07:31:34.246Z,39.27
2023-05-12T07:34:04.475Z,37.87
2023-05-12T07:36:34.590Z,39.60
2023-05-12T07:39:04.437Z,40.70
2023-05-12T07:41:36.939Z,40.03
2023-05-12T07:44:06.760Z,40.53
2023-05-12T07:46:36.728Z,41.13
2023-05-12T07:49:07.508Z,42.93
2023-05-12T07:51:37.540Z,43.07
2023-05-12T07:54:10.124Z,42.97
2023-05-12T07:56:46.284Z,42.67
2023-05-12T07:59:16.166Z,44.27
2023-05-12T08:01:46.129Z,43.50
2023-05-12T08:04:16.304Z,42.77
2023-05-12T08:06:46.188Z,45.87
2023-05-12T08:09:16.045Z,44.83
2023-05-12T08:11:51.591Z,42.87
2023-05-12T08:14:22.815Z,44.33
2023-05-12T08:16:52.739Z,45.43
2023-05-12T08:19:23.458Z,45.47
2023-05-12T08:21:53.879Z,45.10
2023-05-12T08:24:23.712Z,44.50
2023-05-12T08:26:56.130Z,40.97
2023-05-12T08:29:25.977Z,41.40
2023-05-12T08:31:55.891Z,42.00
2023-05-12T08:34:25.746Z,40.97
2023-05-12T08:36:55.800Z,40.80
2023-05-12T08:39:25.672Z,41.07
2023-05-12T08:42:11.239Z,40.63
2023-05-12T08:44:41.474Z,37.57
2023-05-12T08:47:15.050Z,38.23
2023-05-12T08:49:49.382Z,39.20
2023-05-12T08:52:24.706Z,36.37
2023-05-12T08:55:01.017Z,35.47
2023-05-12T08:57:47.421Z,35.30
2023-05-12T09:51:55.830Z,19.58
2023-05-12T09:58:22.581Z,16.23
2023-05-12T10:16:12.384Z,15.00
2023-05-12T10:18:45.827Z,13.90
2023-05-12T10:21:24.317Z,13.70
2023-05-12T10:24:04.159Z,13.07
2023-05-12T10:26:36.204Z,13.88
2023-05-12T10:29:10.331Z,11.95
2023-05-12T10:31:44.498Z,13.43
2023-05-12T10:34:21.781Z,13.98
2023-05-12T10:36:56.690Z,14.40
2023-05-12T10:39:32.761Z,14.85
2023-05-12T10:42:13.994Z,14.77
2023-05-12T10:44:54.643Z,14.38
2023-05-12T10:47:39.101Z,14.80
2023-05-12T10:50:13.915Z,14.73
2023-05-12T10:52:45.426Z,16.42
2023-05-12T10:55:19.606Z,15.63
2023-05-12T10:57:55.940Z,14.65
2023-05-12T11:00:31.354Z,14.50
2023-05-12T11:03:17.095Z,15.00
2023-05-12T11:06:01.446Z,15.40
2023-05-12T11:08:40.366Z,15.35
2023-05-12T11:11:11.059Z,16.17
2023-05-12T11:13:42.647Z,16.10
2023-05-12T11:16:15.387Z,15.95
2023-05-12T11:18:48.900Z,16.30
2023-05-12T11:21:18.928Z,16.05
2023-05-12T11:23:56.542Z,16.23
2023-05-12T11:26:26.360Z,17.13
2023-05-12T11:28:56.366Z,16.60
2023-05-12T11:31:26.279Z,15.90
2023-05-12T11:34:13.665Z,15.70
2023-05-12T11:36:45.553Z,17.10
2023-05-12T11:39:21.016Z,15.98
2023-05-12T11:41:59.272Z,17.58
2023-05-12T11:44:35.670Z,17.02
2023-05-12T11:47:06.668Z,16.17
2023-05-12T11:49:49.097Z,15.93
2023-05-12T11:52:19.698Z,14.68
2023-05-12T11:54:54.697Z,13.57
2023-05-12T11:57:29.545Z,14.60
2023-05-12T12:00:00.970Z,15.70
2023-05-12T12:02:31.024Z,15.25
2023-05-12T12:05:03.721Z,16.00
2023-05-12T12:07:34.658Z,14.85
2023-05-12T12:10:14.987Z,15.80
2023-05-12T12:12:45.278Z,15.93
2023-05-12T12:15:15.807Z,16.08
2023-05-12T12:17:45.650Z,15.85
2023-05-12T12:20:18.999Z,15.88
2023-05-12T12:22:48.823Z,16.05
2023-05-12T12:25:19.887Z,15.15
2023-05-12T12:27:50.020Z,15.65
2023-05-12T12:30:20.061Z,15.68
2023-05-12T12:32:49.984Z,15.02
2023-05-12T12:35:23.389Z,13.85
2023-05-12T12:37:54.058Z,14.95
2023-05-12T12:40:23.942Z,14.90
2023-05-12T12:42:53.749Z,14.63
2023-05-12T12:45:23.879Z,14.95
2023-05-12T12:47:55.200Z,14.52
2023-05-12T12:50:27.872Z,14.10
2023-05-12T12:52:57.661Z,12.98
2023-05-12T12:55:27.620Z,13.52
2023-05-12T12:57:58.190Z,12.32
2023-05-12T13:00:28.648Z,12.27
2023-05-12T13:02:59.506Z,11.80
2023-05-12T13:05:31.988Z,11.80
2023-05-12T13:08:01.849Z,12.13
2023-05-12T13:10:31.781Z,11.23
2023-05-12T13:13:01.656Z,11.52
2023-05-12T13:15:34.813Z,10.75
2023-05-12T13:18:04.641Z,10.52
2023-05-12T13:20:37.216Z,11.05
2023-05-12T13:23:07.201Z,10.02
2023-05-12T13:25:37.034Z,9.80
2023-05-12T13:28:06.889Z,9.48
2023-05-12T13:30:36.841Z,9.63
2023-05-12T13:33:07.059Z,7.72
2023-05-12T13:35:39.822Z,6.55
2023-05-12T13:38:11.047Z,6.78
2023-05-12T13:40:41.792Z,6.03
2023-05-12T13:43:12.561Z,6.18
2023-05-12T13:45:43.161Z,5.70
2023-05-12T13:48:13.078Z,5.53
2023-05-12T13:50:45.628Z,5.78
2023-05-12T13:53:15.522Z,5.28
2023-05-12T13:55:45.715Z,5.80
2023-05-12T13:58:15.537Z,5.70
2023-05-12T14:00:45.415Z,6.10
2023-05-12T14:03:15.291Z,6.10
2023-05-12T14:05:47.715Z,6.18
2023-05-12T14:08:17.601Z,5.60
2023-05-12T14:10:47.460Z,5.75
2023-05-12T14:13:17.500Z,5.50
2023-05-12T14:15:51.480Z,5.43
2023-05-12T14:18:21.708Z,5.55
2023-05-12T14:20:54.561Z,5.97
2023-05-12T14:23:24.388Z,5.88
2023-05-12T14:25:54.635Z,5.90
2023-05-12T14:28:24.942Z,6.70
2023-05-12T14:30:57.514Z,6.75
2023-05-12T14:33:27.416Z,7.30
2023-05-12T14:36:07.158Z,7.10
2023-05-12T14:38:38.124Z,7.18
2023-05-12T14:41:08.677Z,7.90
2023-05-12T14:43:38.657Z,7.65
2023-05-12T14:46:09.005Z,8.80
2023-05-12T14:48:38.808Z,8.20
2023-05-12T14:51:11.226Z,7.80
2023-05-12T14:53:41.119Z,7.43
2023-05-12T14:56:17.529Z,8.07
2023-05-12T14:58:47.399Z,8.20
2023-05-12T15:01:17.487Z,7.88
2023-05-12T15:03:47.678Z,7.60
2023-05-12T15:06:22.447Z,7.78
2023-05-12T15:08:54.660Z,7.55
2023-05-12T15:11:24.772Z,7.75
2023-05-12T15:13:54.659Z,7.95
2023-05-12T15:16:26.392Z,8.25
2023-05-12T15:18:56.219Z,9.65
2023-05-12T15:21:28.736Z,10.48
2023-05-12T15:23:58.578Z,11.40
2023-05-12T15:26:33.653Z,13.07
2023-05-12T15:29:05.254Z,13.23
2023-05-12T15:31:37.655Z,13.38
2023-05-12T15:34:07.681Z,14.27
2023-05-12T15:36:40.124Z,14.25
2023-05-12T15:39:10.180Z,14.00
2023-05-12T15:41:40.005Z,14.13
2023-05-12T15:44:09.830Z,15.60
2023-05-12T15:46:39.715Z,15.68
2023-05-12T15:49:10.235Z,14.73
2023-05-12T15:51:42.756Z,15.25
2023-05-12T15:54:12.970Z,14.93
2023-05-12T15:56:44.831Z,16.40
2023-05-12T15:59:15.008Z,14.45
2023-05-12T16:01:44.921Z,15.80
2023-05-12T16:04:14.908Z,15.57
2023-05-12T16:06:47.792Z,15.38
2023-05-12T16:09:18.558Z,15.38
2023-05-12T16:11:49.067Z,16.67
2023-05-12T16:14:19.320Z,17.83
2023-05-12T16:16:49.694Z,17.10
2023-05-12T16:19:20.234Z,17.05
2023-05-12T16:21:53.543Z,16.90
2023-05-12T16:24:23.837Z,17.35
2023-05-12T16:26:53.753Z,15.95
2023-05-12T16:29:23.582Z,16.48
2023-05-12T16:31:53.928Z,15.95
2023-05-12T16:34:25.220Z,16.80
2023-05-12T16:36:57.646Z,15.48
2023-05-12T16:39:27.472Z,14.63
2023-05-12T16:41:57.256Z,14.13
2023-05-12T16:44:28.016Z,14.67
2023-05-12T16:46:57.861Z,14.90
2023-05-12T16:49:27.793Z,13.93
2023-05-12T16:52:00.189Z,14.25
2023-05-12T16:54:30.111Z,14.18
2023-05-12T16:57:02.099Z,13.07
2023-05-12T16:59:32.659Z,13.60
2023-05-12T17:02:02.613Z,12.88
2023-05-12T17:04:34.102Z,12.88
2023-05-12T17:07:06.658Z,12.25
2023-05-12T17:09:38.068Z,12.07
2023-05-12T17:12:08.874Z,11.57
2023-05-12T17:14:39.495Z,10.93
2023-05-12T17:17:09.448Z,10.57
2023-05-12T17:19:42.155Z,10.80
2023-05-12T17:22:14.676Z,10.60
2023-05-12T17:24:44.756Z,9.52
2023-05-12T17:27:14.606Z,8.85
2023-05-12T17:29:44.427Z,9.77
2023-05-12T17:32:14.313Z,8.57
2023-05-12T17:34:44.147Z,7.90
2023-05-12T17:37:18.906Z,7.63
2023-05-12T17:39:50.649Z,7.27
2023-05-12T17:42:20.600Z,7.43
2023-05-12T17:44:50.389Z,7.15
2023-05-12T17:47:20.314Z,7.13
2023-05-12T17:49:50.260Z,6.80
2023-05-12T17:52:22.779Z,6.30
2023-05-12T17:54:57.397Z,5.90
2023-05-12T17:57:27.442Z,6.00
2023-05-12T17:59:57.226Z,5.72
2023-05-12T18:02:27.175Z,5.50
2023-05-12T18:04:57.089Z,5.47
2023-05-12T18:07:29.652Z,5.55
2023-05-12T18:10:01.048Z,5.60
2023-05-12T18:12:31.168Z,5.80
2023-05-12T18:15:01.000Z,5.10
2023-05-12T18:17:31.696Z,5.22
2023-05-12T18:20:01.813Z,5.07
2023-05-12T18:22:34.311Z,5.03
2023-05-12T18:25:04.109Z,4.88
2023-05-12T18:27:33.985Z,4.88
2023-05-12T18:30:03.884Z,5.10
2023-05-12T18:32:33.853Z,5.00
2023-05-12T18:35:07.529Z,4.80
2023-05-12T18:37:39.986Z,4.60
2023-05-12T18:40:11.502Z,4.47
2023-05-12T18:42:41.439Z,5.00
2023-05-12T18:45:12.235Z,4.18
2023-05-12T18:47:42.491Z,4.55
2023-05-12T18:50:13.652Z,4.60
2023-05-12T18:52:46.105Z,4.20
2023-05-12T18:55:16.165Z,3.75
2023-05-12T18:57:48.274Z,3.60
2023-05-12T19:00:18.728Z,3.58
2023-05-12T19:02:48.578Z,3.53
2023-05-12T19:05:18.545Z,3.73
2023-05-12T19:07:54.876Z,3.72
2023-05-12T19:10:27.815Z,3.67
2023-05-12T19:12:57.910Z,3.50
2023-05-12T19:15:28.057Z,3.83
2023-05-12T19:18:01.003Z,3.63
2023-05-12T19:20:31.106Z,3.83
2023-05-12T19:23:10.499Z,4.28
2023-05-12T19:25:44.243Z,4.07
2023-05-12T19:28:18.893Z,4.10
2023-05-12T19:30:48.840Z,4.57
2023-05-12T19:33:21.548Z,4.32
2023-05-12T19:35:55.103Z,4.22
2023-05-12T19:38:27.820Z,4.78
2023-05-12T19:41:04.310Z,4.30
2023-05-12T19:43:35.928Z,4.40
2023-05-12T19:46:08.586Z,4.88
2023-05-12T19:48:40.762Z,4.60
2023-05-12T19:51:27.948Z,4.50
2023-05-12T19:54:02.280Z,4.63
2023-05-12T19:56:38.593Z,4.80
2023-05-12T19:59:12.749Z,5.33
2023-05-12T20:01:46.077Z,5.67
2023-05-12T20:04:16.810Z,4.63
2023-05-12T20:06:47.047Z,5.17
2023-05-12T20:09:40.788Z,5.10
2023-05-12T20:12:18.144Z,4.80
2023-05-12T20:14:50.760Z,5.00
2023-05-12T20:17:23.118Z,4.70
2023-05-12T20:19:57.838Z,5.03
2023-05-12T20:22:31.608Z,5.00
2023-05-12T20:25:08.579Z,5.23
2023-05-12T20:27:43.637Z,4.83
2023-05-12T20:30:17.153Z,5.00
2023-05-12T20:32:49.117Z,5.50
2023-05-12T20:35:22.592Z,5.00
2023-05-12T20:38:00.931Z,5.00
2023-05-12T20:40:34.761Z,5.50
2023-05-12T20:43:12.105Z,5.60
2023-05-12T20:45:42.809Z,5.33
2023-05-12T20:48:12.893Z,5.70
2023-05-12T20:50:43.441Z,6.00
2023-05-12T20:53:13.595Z,6.47
2023-05-12T20:55:46.195Z,6.83
2023-05-12T20:58:16.290Z,6.90
2023-05-12T21:00:46.171Z,7.20
2023-05-12T21:03:17.374Z,7.00
2023-05-12T21:05:50.317Z,7.23
2023-05-12T21:08:22.838Z,6.07
2023-05-12T21:10:56.190Z,6.47
2023-05-12T21:13:26.140Z,6.37
2023-05-12T21:15:56.662Z,6.00
2023-05-12T21:18:29.912Z,6.07
2023-05-12T21:21:01.503Z,6.10
2023-05-12T21:23:33.037Z,6.90
2023-05-12T21:26:10.807Z,6.30
2023-05-12T21:28:51.529Z,6.50
2023-05-12T21:31:32.716Z,6.90
2023-05-12T21:34:04.722Z,6.90
2023-05-12T21:36:34.911Z,6.70
2023-05-12T21:39:11.182Z,6.70
2023-05-12T21:41:43.741Z,7.63
2023-05-12T21:44:13.730Z,7.23
2023-05-12T21:46:44.061Z,7.70
2023-05-12T21:49:17.911Z,7.57
2023-05-12T21:51:48.117Z,8.07
2023-05-12T21:54:19.316Z,7.27
2023-05-12T21:56:52.035Z,8.13
2023-05-12T21:59:22.861Z,8.10
2023-05-12T22:01:53.044Z,7.57
2023-05-12T22:04:23.235Z,7.90
2023-05-12T22:06:56.091Z,7.83
2023-05-12T22:09:26.409Z,6.83
2023-05-12T22:11:58.979Z,6.80
2023-05-12T22:14:28.954Z,6.70
2023-05-12T22:16:58.913Z,7.27
2023-05-12T22:19:28.857Z,6.90
2023-05-12T22:25:01.859Z,7.40
2023-05-12T22:27:34.390Z,7.27
2023-05-12T22:30:04.350Z,7.80
2023-05-12T22:32:35.891Z,7.77
2023-05-12T22:35:07.412Z,6.90
2023-05-12T22:37:43.166Z,8.47
2023-05-12T23:12:24.401Z,7.90
2023-05-12T23:14:56.918Z,7.57
2023-05-12T23:17:26.931Z,8.00
2023-05-12T23:19:57.741Z,7.50
2023-05-12T23:22:29.311Z,7.43
2023-05-12T23:25:04.084Z,8.53
2023-05-12T23:27:36.776Z,8.47
2023-05-12T23:30:07.402Z,8.13
2023-05-12T23:32:37.477Z,8.80
2023-05-12T23:35:08.701Z,8.67
2023-05-12T23:37:38.761Z,9.03
2023-05-12T23:40:12.117Z,9.63
2023-05-12T23:42:48.239Z,9.60
2023-05-12T23:45:21.798Z,9.63
2023-05-12T23:47:58.651Z,10.10
2023-05-12T23:50:37.931Z,10.47
2023-05-12T23:53:09.697Z,10.63
2023-05-12T23:55:40.987Z,10.50
2023-05-12T23:58:15.074Z,10.03
